sensor_id;sensor_type;location;lat;lon;timestamp;pressure;altitude;pressure_sealevel;temperature;humidity
11880;BME280;5999;43.256;27.816;2022-09-25T00:00:46;100642.53;;;13.30;100.00
11880;BME280;5999;43.256;27.816;2022-09-25T00:03:14;100642.53;;;13.30;100.00
11880;BME280;5999;43.256;27.816;2022-09-25T00:05:43;100642.38;;;13.33;100.00
11880;BME280;5999;43.256;27.816;2022-09-25T00:08:11;100649.44;;;13.33;100.00
11880;BME280;5999;43.256;27.816;2022-09-25T00:10:40;100636.06;;;13.36;100.00
11880;BME280;5999;43.256;27.816;2022-09-25T00:13:08;100640.75;;;13.31;100.00
11880;BME280;5999;43.256;27.816;2022-09-25T00:15:35;100636.16;;;13.34;100.00
11880;BME280;5999;43.256;27.816;2022-09-25T00:18:02;100630.75;;;13.36;100.00
11880;BME280;5999;43.256;27.816;2022-09-25T00:20:29;100634.09;;;13.22;100.00
11880;BME280;5999;43.256;27.816;2022-09-25T00:22:56;100631.97;;;13.30;100.00
11880;BME280;5999;43.256;27.816;2022-09-25T00:25:23;100630.69;;;13.37;100.00
11880;BME280;5999;43.256;27.816;2022-09-25T00:27:53;100632.63;;;13.34;100.00
11880;BME280;5999;43.256;27.816;2022-09-25T00:30:21;100636.63;;;13.23;100.00
11880;BME280;5999;43.256;27.816;2022-09-25T00:32:48;100630.09;;;13.32;100.00
11880;BME280;5999;43.256;27.816;2022-09-25T00:35:15;100640.19;;;13.41;100.00
11880;BME280;5999;43.256;27.816;2022-09-25T00:37:42;100640.97;;;13.43;100.00
11880;BME280;5999;43.256;27.816;2022-09-25T00:40:09;100643.81;;;13.56;100.00
11880;BME280;5999;43.256;27.816;2022-09-25T00:42:36;100639.22;;;13.25;100.00
11880;BME280;5999;43.256;27.816;2022-09-25T00:45:04;100650.28;;;13.33;100.00
11880;BME280;5999;43.256;27.816;2022-09-25T00:47:54;100641.38;;;13.17;100.00
11880;BME280;5999;43.256;27.816;2022-09-25T00:50:33;100647.66;;;13.33;100.00
11880;BME280;5999;43.256;27.816;2022-09-25T00:53:07;100638.50;;;13.40;100.00
11880;BME280;5999;43.256;27.816;2022-09-25T00:55:36;100641.44;;;13.34;100.00
11880;BME280;5999;43.256;27.816;2022-09-25T00:58:05;100649.38;;;13.34;100.00
11880;BME280;5999;43.256;27.816;2022-09-25T01:00:33;100643.91;;;13.37;100.00
11880;BME280;5999;43.256;27.816;2022-09-25T01:03:01;100652.19;;;13.49;100.00
11880;BME280;5999;43.256;27.816;2022-09-25T01:05:33;100650.94;;;13.38;100.00
11880;BME280;5999;43.256;27.816;2022-09-25T01:08:02;100668.56;;;13.01;100.00
11880;BME280;5999;43.256;27.816;2022-09-25T01:10:31;100678.53;;;12.96;100.00
11880;BME280;5999;43.256;27.816;2022-09-25T01:12:59;100696.44;;;13.09;100.00
11880;BME280;5999;43.256;27.816;2022-09-25T01:15:33;100688.44;;;12.91;100.00
11880;BME280;5999;43.256;27.816;2022-09-25T01:18:16;100685.50;;;12.97;100.00
11880;BME280;5999;43.256;27.816;2022-09-25T01:21:05;100688.44;;;13.10;100.00
11880;BME280;5999;43.256;27.816;2022-09-25T01:23:55;100694.56;;;13.11;100.00
11880;BME280;5999;43.256;27.816;2022-09-25T01:26:56;100693.81;;;13.26;100.00
11880;BME280;5999;43.256;27.816;2022-09-25T01:29:36;100691.91;;;13.30;100.00
11880;BME280;5999;43.256;27.816;2022-09-25T01:32:11;100694.75;;;13.25;100.00
11880;BME280;5999;43.256;27.816;2022-09-25T01:34:51;100695.25;;;13.33;100.00
11880;BME280;5999;43.256;27.816;2022-09-25T01:37:23;100703.81;;;13.38;100.00
11880;BME280;5999;43.256;27.816;2022-09-25T01:39:58;100717.53;;;13.46;100.00
11880;BME280;5999;43.256;27.816;2022-09-25T01:42:31;100720.78;;;13.34;100.00
11880;BME280;5999;43.256;27.816;2022-09-25T01:45:02;100729.31;;;13.39;100.00
11880;BME280;5999;43.256;27.816;2022-09-25T01:47:32;100734.94;;;13.51;100.00
11880;BME280;5999;43.256;27.816;2022-09-25T01:50:05;100736.34;;;13.58;100.00
11880;BME280;5999;43.256;27.816;2022-09-25T01:52:38;100740.84;;;13.56;100.00
11880;BME280;5999;43.256;27.816;2022-09-25T01:55:11;100742.59;;;13.57;100.00
11880;BME280;5999;43.256;27.816;2022-09-25T01:57:42;100736.66;;;13.52;100.00
11880;BME280;5999;43.256;27.816;2022-09-25T02:00:18;100731.06;;;13.58;100.00
11880;BME280;5999;43.256;27.816;2022-09-25T02:02:49;100726.59;;;13.58;100.00
11880;BME280;5999;43.256;27.816;2022-09-25T02:05:24;100731.59;;;13.64;100.00
11880;BME280;5999;43.256;27.816;2022-09-25T02:07:55;100727.00;;;13.68;100.00
11880;BME280;5999;43.256;27.816;2022-09-25T02:10:28;100723.59;;;13.66;100.00
11880;BME280;5999;43.256;27.816;2022-09-25T02:13:01;100730.91;;;13.61;100.00
11880;BME280;5999;43.256;27.816;2022-09-25T02:15:34;100729.19;;;13.60;100.00
11880;BME280;5999;43.256;27.816;2022-09-25T02:18:04;100730.41;;;13.35;100.00
11880;BME280;5999;43.256;27.816;2022-09-25T02:20:55;100738.50;;;13.50;100.00
11880;BME280;5999;43.256;27.816;2022-09-25T02:23:26;100737.28;;;13.57;100.00
11880;BME280;5999;43.256;27.816;2022-09-25T02:26:01;100743.66;;;13.53;100.00
11880;BME280;5999;43.256;27.816;2022-09-25T02:28:30;100754.09;;;13.56;100.00
11880;BME280;5999;43.256;27.816;2022-09-25T02:30:58;100756.00;;;13.52;100.00
11880;BME280;5999;43.256;27.816;2022-09-25T02:33:26;100760.63;;;13.49;100.00
11880;BME280;5999;43.256;27.816;2022-09-25T02:35:53;100760.69;;;13.47;100.00
11880;BME280;5999;43.256;27.816;2022-09-25T02:38:21;100760.16;;;13.40;100.00
11880;BME280;5999;43.256;27.816;2022-09-25T02:40:54;100759.97;;;13.43;100.00
11880;BME280;5999;43.256;27.816;2022-09-25T02:43:30;100766.00;;;13.28;100.00
11880;BME280;5999;43.256;27.816;2022-09-25T02:46:08;100776.63;;;13.26;100.00
11880;BME280;5999;43.256;27.816;2022-09-25T02:48:46;100780.94;;;13.29;100.00
11880;BME280;5999;43.256;27.816;2022-09-25T02:51:27;100792.44;;;13.28;100.00
11880;BME280;5999;43.256;27.816;2022-09-25T02:54:01;100798.16;;;13.38;100.00
11880;BME280;5999;43.256;27.816;2022-09-25T02:56:33;100801.88;;;13.34;100.00
11880;BME280;5999;43.256;27.816;2022-09-25T02:59:05;100798.66;;;13.27;100.00
11880;BME280;5999;43.256;27.816;2022-09-25T03:01:36;100810.69;;;13.34;100.00
11880;BME280;5999;43.256;27.816;2022-09-25T03:04:05;100810.53;;;13.37;100.00
11880;BME280;5999;43.256;27.816;2022-09-25T03:06:32;100812.63;;;13.31;100.00
11880;BME280;5999;43.256;27.816;2022-09-25T03:09:00;100817.91;;;13.31;100.00
11880;BME280;5999;43.256;27.816;2022-09-25T03:11:30;100821.88;;;13.20;100.00
11880;BME280;5999;43.256;27.816;2022-09-25T03:13:58;100814.41;;;13.30;100.00
11880;BME280;5999;43.256;27.816;2022-09-25T03:16:31;100813.16;;;13.18;100.00
11880;BME280;5999;43.256;27.816;2022-09-25T03:19:00;100823.03;;;12.96;100.00
11880;BME280;5999;43.256;27.816;2022-09-25T03:21:28;100830.28;;;12.72;100.00
11880;BME280;5999;43.256;27.816;2022-09-25T03:23:54;100843.75;;;12.65;100.00
11880;BME280;5999;43.256;27.816;2022-09-25T03:26:22;100855.03;;;12.90;100.00
11880;BME280;5999;43.256;27.816;2022-09-25T03:28:50;100858.44;;;12.92;100.00
11880;BME280;5999;43.256;27.816;2022-09-25T03:31:17;100858.16;;;12.98;100.00
11880;BME280;5999;43.256;27.816;2022-09-25T03:33:45;100852.66;;;13.02;100.00
11880;BME280;5999;43.256;27.816;2022-09-25T03:36:14;100842.50;;;12.93;100.00
11880;BME280;5999;43.256;27.816;2022-09-25T03:38:42;100858.34;;;12.93;100.00
11880;BME280;5999;43.256;27.816;2022-09-25T03:41:12;100860.38;;;12.88;100.00
11880;BME280;5999;43.256;27.816;2022-09-25T03:43:40;100866.28;;;12.93;100.00
11880;BME280;5999;43.256;27.816;2022-09-25T03:46:09;100875.44;;;13.05;100.00
11880;BME280;5999;43.256;27.816;2022-09-25T03:48:37;100867.75;;;13.00;100.00
11880;BME280;5999;43.256;27.816;2022-09-25T03:51:05;100874.09;;;12.96;100.00
11880;BME280;5999;43.256;27.816;2022-09-25T03:53:33;100879.69;;;12.70;100.00
11880;BME280;5999;43.256;27.816;2022-09-25T03:56:02;100898.16;;;12.90;100.00
11880;BME280;5999;43.256;27.816;2022-09-25T03:58:29;100906.72;;;12.95;100.00
11880;BME280;5999;43.256;27.816;2022-09-25T04:00:56;100908.56;;;12.93;100.00
11880;BME280;5999;43.256;27.816;2022-09-25T04:03:24;100914.38;;;13.01;100.00
11880;BME280;5999;43.256;27.816;2022-09-25T04:05:53;100923.81;;;13.07;100.00
11880;BME280;5999;43.256;27.816;2022-09-25T04:08:20;100924.66;;;13.07;100.00
11880;BME280;5999;43.256;27.816;2022-09-25T04:10:49;100938.44;;;13.16;100.00
11880;BME280;5999;43.256;27.816;2022-09-25T04:13:15;100936.56;;;13.18;100.00
11880;BME280;5999;43.256;27.816;2022-09-25T04:15:44;100936.84;;;12.91;100.00
11880;BME280;5999;43.256;27.816;2022-09-25T04:18:12;100947.56;;;12.47;100.00
11880;BME280;5999;43.256;27.816;2022-09-25T04:20:39;100985.13;;;11.88;100.00
11880;BME280;5999;43.256;27.816;2022-09-25T04:23:07;101075.38;;;10.98;100.00
11880;BME280;5999;43.256;27.816;2022-09-25T04:25:34;101181.31;;;10.81;100.00
11880;BME280;5999;43.256;27.816;2022-09-25T04:28:01;101277.09;;;11.35;100.00
11880;BME280;5999;43.256;27.816;2022-09-25T04:30:30;101314.84;;;11.64;100.00
11880;BME280;5999;43.256;27.816;2022-09-25T04:32:57;101319.41;;;11.85;100.00
11880;BME280;5999;43.256;27.816;2022-09-25T04:35:47;101287.47;;;11.95;100.00
11880;BME280;5999;43.256;27.816;2022-09-25T04:38:13;101281.53;;;12.13;100.00
11880;BME280;5999;43.256;27.816;2022-09-25T04:40:40;101256.66;;;12.20;100.00
11880;BME280;5999;43.256;27.816;2022-09-25T04:43:08;101247.03;;;12.43;100.00
11880;BME280;5999;43.256;27.816;2022-09-25T04:45:35;101219.97;;;12.60;100.00
11880;BME280;5999;43.256;27.816;2022-09-25T04:48:04;101202.75;;;12.50;100.00
11880;BME280;5999;43.256;27.816;2022-09-25T04:50:31;101198.88;;;12.82;100.00
11880;BME280;5999;43.256;27.816;2022-09-25T04:52:59;101178.59;;;13.04;100.00
11880;BME280;5999;43.256;27.816;2022-09-25T04:55:26;101123.09;;;12.60;100.00
11880;BME280;5999;43.256;27.816;2022-09-25T04:57:54;101110.94;;;12.56;100.00
11880;BME280;5999;43.256;27.816;2022-09-25T05:00:22;101096.91;;;12.98;100.00
11880;BME280;5999;43.256;27.816;2022-09-25T05:02:49;101083.44;;;13.25;100.00
11880;BME280;5999;43.256;27.816;2022-09-25T05:05:17;101062.50;;;13.41;100.00
11880;BME280;5999;43.256;27.816;2022-09-25T05:07:50;101034.50;;;13.56;100.00
11880;BME280;5999;43.256;27.816;2022-09-25T05:10:18;101019.00;;;13.67;100.00
11880;BME280;5999;43.256;27.816;2022-09-25T05:12:45;100995.25;;;13.84;100.00
11880;BME280;5999;43.256;27.816;2022-09-25T05:15:13;100982.47;;;13.75;100.00
11880;BME280;5999;43.256;27.816;2022-09-25T05:17:40;100955.56;;;13.84;100.00
11880;BME280;5999;43.256;27.816;2022-09-25T05:20:08;100934.47;;;13.64;100.00
11880;BME280;5999;43.256;27.816;2022-09-25T05:22:35;100914.03;;;13.68;100.00
11880;BME280;5999;43.256;27.816;2022-09-25T05:25:02;100905.44;;;13.62;100.00
11880;BME280;5999;43.256;27.816;2022-09-25T05:27:29;100893.59;;;13.89;100.00
11880;BME280;5999;43.256;27.816;2022-09-25T05:29:57;100887.25;;;14.10;100.00
11880;BME280;5999;43.256;27.816;2022-09-25T05:32:24;100875.88;;;14.25;100.00
11880;BME280;5999;43.256;27.816;2022-09-25T05:34:51;100865.75;;;14.51;100.00
11880;BME280;5999;43.256;27.816;2022-09-25T05:37:18;100858.41;;;14.74;100.00
11880;BME280;5999;43.256;27.816;2022-09-25T05:39:45;100862.66;;;14.94;100.00
11880;BME280;5999;43.256;27.816;2022-09-25T05:42:12;100847.47;;;15.29;100.00
11880;BME280;5999;43.256;27.816;2022-09-25T05:44:40;100836.16;;;15.57;100.00
11880;BME280;5999;43.256;27.816;2022-09-25T05:47:10;100838.69;;;15.91;100.00
11880;BME280;5999;43.256;27.816;2022-09-25T05:49:37;100823.59;;;16.21;100.00
11880;BME280;5999;43.256;27.816;2022-09-25T05:52:04;100816.81;;;16.60;100.00
11880;BME280;5999;43.256;27.816;2022-09-25T05:54:31;100793.50;;;16.94;100.00
11880;BME280;5999;43.256;27.816;2022-09-25T05:56:58;100765.34;;;17.04;100.00
11880;BME280;5999;43.256;27.816;2022-09-25T05:59:24;100733.91;;;17.24;100.00
11880;BME280;5999;43.256;27.816;2022-09-25T06:01:51;100704.31;;;17.56;100.00
11880;BME280;5999;43.256;27.816;2022-09-25T06:04:18;100684.47;;;18.00;100.00
11880;BME280;5999;43.256;27.816;2022-09-25T06:06:45;100662.56;;;18.46;100.00
11880;BME280;5999;43.256;27.816;2022-09-25T06:09:13;100648.91;;;18.87;100.00
11880;BME280;5999;43.256;27.816;2022-09-25T06:11:39;100631.28;;;19.33;100.00
11880;BME280;5999;43.256;27.816;2022-09-25T06:14:08;100615.75;;;19.38;100.00
11880;BME280;5999;43.256;27.816;2022-09-25T06:16:35;100604.69;;;19.78;100.00
11880;BME280;5999;43.256;27.816;2022-09-25T06:19:02;100606.88;;;19.38;100.00
11880;BME280;5999;43.256;27.816;2022-09-25T06:21:29;100601.66;;;19.25;100.00
11880;BME280;5999;43.256;27.816;2022-09-25T06:23:55;100600.78;;;18.89;100.00
11880;BME280;5999;43.256;27.816;2022-09-25T06:26:23;100601.06;;;19.44;100.00
11880;BME280;5999;43.256;27.816;2022-09-25T06:28:51;100590.59;;;19.99;100.00
11880;BME280;5999;43.256;27.816;2022-09-25T06:31:17;100577.47;;;20.07;100.00
11880;BME280;5999;43.256;27.816;2022-09-25T06:33:44;100575.13;;;20.80;93.93
11880;BME280;5999;43.256;27.816;2022-09-25T06:36:15;100569.84;;;21.74;86.79
11880;BME280;5999;43.256;27.816;2022-09-25T06:38:42;100584.75;;;21.03;84.34
11880;BME280;5999;43.256;27.816;2022-09-25T06:41:09;100580.44;;;21.75;77.17
11880;BME280;5999;43.256;27.816;2022-09-25T06:43:40;100576.63;;;22.49;71.24
11880;BME280;5999;43.256;27.816;2022-09-25T06:46:08;100583.44;;;23.31;66.38
11880;BME280;5999;43.256;27.816;2022-09-25T06:48:35;100582.31;;;22.85;62.54
11880;BME280;5999;43.256;27.816;2022-09-25T06:51:01;100580.00;;;22.51;63.43
11880;BME280;5999;43.256;27.816;2022-09-25T06:53:29;100578.91;;;22.83;64.47
11880;BME280;5999;43.256;27.816;2022-09-25T06:55:56;100589.47;;;21.43;66.66
11880;BME280;5999;43.256;27.816;2022-09-25T06:58:25;100591.44;;;21.30;70.48
11880;BME280;5999;43.256;27.816;2022-09-25T07:00:54;100591.41;;;21.93;69.86
11880;BME280;5999;43.256;27.816;2022-09-25T07:03:21;100582.59;;;23.21;66.96
11880;BME280;5999;43.256;27.816;2022-09-25T07:06:08;100585.84;;;22.16;63.80
11880;BME280;5999;43.256;27.816;2022-09-25T07:08:36;100580.66;;;23.03;61.70
11880;BME280;5999;43.256;27.816;2022-09-25T07:11:04;100576.59;;;21.99;69.83
11880;BME280;5999;43.256;27.816;2022-09-25T07:13:32;100574.72;;;21.38;66.46
11880;BME280;5999;43.256;27.816;2022-09-25T07:16:02;100585.69;;;22.77;65.01
11880;BME280;5999;43.256;27.816;2022-09-25T07:18:29;100588.50;;;22.56;61.61
11880;BME280;5999;43.256;27.816;2022-09-25T07:20:59;100583.03;;;23.73;62.30
11880;BME280;5999;43.256;27.816;2022-09-25T07:23:28;100588.31;;;21.98;68.66
11880;BME280;5999;43.256;27.816;2022-09-25T07:26:01;100580.16;;;23.37;60.96
11880;BME280;5999;43.256;27.816;2022-09-25T07:28:28;100586.97;;;22.13;67.30
11880;BME280;5999;43.256;27.816;2022-09-25T07:30:55;100586.38;;;21.48;70.98
11880;BME280;5999;43.256;27.816;2022-09-25T07:33:23;100581.47;;;23.23;67.34
11880;BME280;5999;43.256;27.816;2022-09-25T07:35:50;100582.97;;;21.46;67.92
11880;BME280;5999;43.256;27.816;2022-09-25T07:38:17;100582.88;;;20.62;74.49
11880;BME280;5999;43.256;27.816;2022-09-25T07:40:44;100581.69;;;21.71;76.47
11880;BME280;5999;43.256;27.816;2022-09-25T07:43:11;100580.34;;;22.97;67.53
11880;BME280;5999;43.256;27.816;2022-09-25T07:45:38;100574.75;;;24.04;58.51
11880;BME280;5999;43.256;27.816;2022-09-25T07:48:06;100588.63;;;24.27;53.73
11880;BME280;5999;43.256;27.816;2022-09-25T07:50:33;100581.28;;;25.89;50.73
11880;BME280;5999;43.256;27.816;2022-09-25T07:53:00;100582.19;;;26.40;48.31
11880;BME280;5999;43.256;27.816;2022-09-25T07:55:27;100579.06;;;27.19;45.07
11880;BME280;5999;43.256;27.816;2022-09-25T07:57:56;100582.94;;;25.56;45.33
11880;BME280;5999;43.256;27.816;2022-09-25T08:00:23;100588.03;;;25.59;46.19
11880;BME280;5999;43.256;27.816;2022-09-25T08:02:57;100579.63;;;24.64;48.22
11880;BME280;5999;43.256;27.816;2022-09-25T08:05:25;100578.50;;;23.74;50.05
11880;BME280;5999;43.256;27.816;2022-09-25T08:07:53;100578.22;;;24.14;51.91
11880;BME280;5999;43.256;27.816;2022-09-25T08:10:20;100576.28;;;21.92;58.42
11880;BME280;5999;43.256;27.816;2022-09-25T08:12:47;100574.69;;;23.19;58.88
11880;BME280;5999;43.256;27.816;2022-09-25T08:15:15;100571.84;;;23.31;56.79
11880;BME280;5999;43.256;27.816;2022-09-25T08:17:42;100569.19;;;24.33;55.92
11880;BME280;5999;43.256;27.816;2022-09-25T08:20:09;100570.31;;;24.76;52.18
11880;BME280;5999;43.256;27.816;2022-09-25T08:22:36;100565.25;;;24.73;49.86
11880;BME280;5999;43.256;27.816;2022-09-25T08:25:04;100556.47;;;25.85;49.61
11880;BME280;5999;43.256;27.816;2022-09-25T08:27:34;100561.47;;;24.66;48.33
11880;BME280;5999;43.256;27.816;2022-09-25T08:30:05;100562.34;;;24.39;52.58
11880;BME280;5999;43.256;27.816;2022-09-25T08:32:33;100556.31;;;23.81;51.73
11880;BME280;5999;43.256;27.816;2022-09-25T08:35:00;100552.41;;;24.85;50.96
11880;BME280;5999;43.256;27.816;2022-09-25T08:37:27;100553.13;;;23.96;52.14
11880;BME280;5999;43.256;27.816;2022-09-25T08:39:54;100561.78;;;23.90;52.22
11880;BME280;5999;43.256;27.816;2022-09-25T08:42:27;100556.13;;;24.38;50.28
11880;BME280;5999;43.256;27.816;2022-09-25T08:44:57;100550.97;;;24.73;50.48
11880;BME280;5999;43.256;27.816;2022-09-25T08:47:40;100548.09;;;23.26;53.29
11880;BME280;5999;43.256;27.816;2022-09-25T08:50:27;100552.06;;;23.02;57.18
11880;BME280;5999;43.256;27.816;2022-09-25T08:53:04;100552.91;;;23.32;55.52
11880;BME280;5999;43.256;27.816;2022-09-25T08:55:53;100542.75;;;22.87;57.14
11880;BME280;5999;43.256;27.816;2022-09-25T08:58:40;100530.88;;;23.66;52.85
11880;BME280;5999;43.256;27.816;2022-09-25T09:01:12;100547.81;;;22.41;56.04
11880;BME280;5999;43.256;27.816;2022-09-25T09:03:45;100541.75;;;24.02;52.55
11880;BME280;5999;43.256;27.816;2022-09-25T09:06:16;100534.00;;;24.98;49.89
11880;BME280;5999;43.256;27.816;2022-09-25T09:08:46;100537.31;;;24.74;49.11
11880;BME280;5999;43.256;27.816;2022-09-25T09:11:18;100531.50;;;24.33;50.73
11880;BME280;5999;43.256;27.816;2022-09-25T09:13:51;100523.47;;;23.40;53.66
11880;BME280;5999;43.256;27.816;2022-09-25T09:16:26;100516.44;;;24.50;51.35
11880;BME280;5999;43.256;27.816;2022-09-25T09:18:55;100518.69;;;24.45;49.92
11880;BME280;5999;43.256;27.816;2022-09-25T09:21:26;100512.34;;;25.26;49.51
11880;BME280;5999;43.256;27.816;2022-09-25T09:23:58;100519.28;;;24.39;49.77
11880;BME280;5999;43.256;27.816;2022-09-25T09:26:39;100517.78;;;24.90;49.00
11880;BME280;5999;43.256;27.816;2022-09-25T09:29:23;100509.47;;;26.55;48.09
11880;BME280;5999;43.256;27.816;2022-09-25T09:32:01;100505.91;;;25.01;51.52
11880;BME280;5999;43.256;27.816;2022-09-25T09:34:43;100516.69;;;23.36;55.86
11880;BME280;5999;43.256;27.816;2022-09-25T09:37:19;100507.78;;;23.73;56.20
11880;BME280;5999;43.256;27.816;2022-09-25T09:40:01;100503.53;;;23.71;56.00
11880;BME280;5999;43.256;27.816;2022-09-25T09:42:38;100494.41;;;23.06;57.42
11880;BME280;5999;43.256;27.816;2022-09-25T09:45:15;100496.78;;;23.94;54.01
11880;BME280;5999;43.256;27.816;2022-09-25T09:47:49;100483.78;;;24.89;51.19
11880;BME280;5999;43.256;27.816;2022-09-25T09:50:31;100488.00;;;24.20;49.85
11880;BME280;5999;43.256;27.816;2022-09-25T09:53:05;100485.06;;;24.49;50.28
11880;BME280;5999;43.256;27.816;2022-09-25T09:55:37;100474.56;;;24.38;48.80
11880;BME280;5999;43.256;27.816;2022-09-25T09:58:12;100484.28;;;24.03;49.38
11880;BME280;5999;43.256;27.816;2022-09-25T10:00:42;100483.31;;;24.40;50.28
11880;BME280;5999;43.256;27.816;2022-09-25T10:03:16;100459.47;;;24.09;55.14
11880;BME280;5999;43.256;27.816;2022-09-25T10:05:46;100470.81;;;23.75;58.97
11880;BME280;5999;43.256;27.816;2022-09-25T10:08:14;100469.47;;;24.35;54.14
11880;BME280;5999;43.256;27.816;2022-09-25T10:10:43;100463.25;;;24.70;54.98
11880;BME280;5999;43.256;27.816;2022-09-25T10:13:15;100448.34;;;24.58;55.89
11880;BME280;5999;43.256;27.816;2022-09-25T10:15:48;100459.91;;;24.50;55.61
11880;BME280;5999;43.256;27.816;2022-09-25T10:18:18;100457.56;;;23.36;69.74
11880;BME280;5999;43.256;27.816;2022-09-25T10:20:50;100451.66;;;24.52;66.20
11880;BME280;5999;43.256;27.816;2022-09-25T10:24:45;100447.84;;;24.09;66.62
11880;BME280;5999;43.256;27.816;2022-09-25T10:27:21;100441.91;;;24.51;65.96
11880;BME280;5999;43.256;27.816;2022-09-25T10:32:52;100433.25;;;24.65;65.16
11880;BME280;5999;43.256;27.816;2022-09-25T10:35:22;100442.66;;;24.61;71.02
11880;BME280;5999;43.256;27.816;2022-09-25T10:37:53;100440.47;;;25.77;69.88
11880;BME280;5999;43.256;27.816;2022-09-25T10:40:27;100436.63;;;23.95;79.51
11880;BME280;5999;43.256;27.816;2022-09-25T10:43:04;100433.03;;;24.22;79.73
11880;BME280;5999;43.256;27.816;2022-09-25T10:45:33;100422.44;;;23.47;80.86
11880;BME280;5999;43.256;27.816;2022-09-25T10:48:00;100428.13;;;23.44;82.65
11880;BME280;5999;43.256;27.816;2022-09-25T10:51:05;100419.22;;;24.17;78.93
11880;BME280;5999;43.256;27.816;2022-09-25T10:53:32;100410.38;;;23.52;67.90
11880;BME280;5999;43.256;27.816;2022-09-25T10:56:03;100409.09;;;23.56;62.83
11880;BME280;5999;43.256;27.816;2022-09-25T10:58:35;100405.88;;;23.52;56.57
11880;BME280;5999;43.256;27.816;2022-09-25T11:01:05;100404.81;;;24.09;52.69
11880;BME280;5999;43.256;27.816;2022-09-25T11:03:37;100404.25;;;23.59;52.43
11880;BME280;5999;43.256;27.816;2022-09-25T11:06:08;100392.50;;;24.86;51.14
11880;BME280;5999;43.256;27.816;2022-09-25T11:08:38;100391.91;;;25.77;48.79
11880;BME280;5999;43.256;27.816;2022-09-25T11:11:07;100392.00;;;26.35;46.69
11880;BME280;5999;43.256;27.816;2022-09-25T11:13:43;100396.25;;;24.49;46.54
11880;BME280;5999;43.256;27.816;2022-09-25T11:16:11;100395.56;;;23.47;47.96
11880;BME280;5999;43.256;27.816;2022-09-25T11:18:41;100387.44;;;24.83;47.39
11880;BME280;5999;43.256;27.816;2022-09-25T11:21:21;100389.69;;;24.25;47.61
11880;BME280;5999;43.256;27.816;2022-09-25T11:24:00;100400.94;;;23.75;49.08
11880;BME280;5999;43.256;27.816;2022-09-25T11:26:32;100390.69;;;23.61;49.51
11880;BME280;5999;43.256;27.816;2022-09-25T11:29:07;100376.09;;;23.63;48.80
11880;BME280;5999;43.256;27.816;2022-09-25T11:31:40;100380.22;;;23.58;48.39
11880;BME280;5999;43.256;27.816;2022-09-25T11:34:15;100390.28;;;23.28;50.29
11880;BME280;5999;43.256;27.816;2022-09-25T11:36:46;100387.41;;;23.39;50.11
11880;BME280;5999;43.256;27.816;2022-09-25T11:39:19;100380.31;;;23.94;51.41
11880;BME280;5999;43.256;27.816;2022-09-25T11:42:12;100388.00;;;23.89;49.35
11880;BME280;5999;43.256;27.816;2022-09-25T11:44:46;100383.22;;;23.82;48.63
11880;BME280;5999;43.256;27.816;2022-09-25T11:47:22;100378.50;;;24.38;46.90
11880;BME280;5999;43.256;27.816;2022-09-25T11:49:55;100383.41;;;23.99;46.48
11880;BME280;5999;43.256;27.816;2022-09-25T11:52:33;100373.31;;;24.01;47.30
11880;BME280;5999;43.256;27.816;2022-09-25T12:01:14;100361.53;;;23.84;46.21
11880;BME280;5999;43.256;27.816;2022-09-25T12:03:57;100344.22;;;24.58;45.35
11880;BME280;5999;43.256;27.816;2022-09-25T12:06:57;100352.47;;;24.91;45.84
11880;BME280;5999;43.256;27.816;2022-09-25T12:09:57;100379.88;;;23.71;48.13
11880;BME280;5999;43.256;27.816;2022-09-25T12:12:34;100363.41;;;24.19;49.55
11880;BME280;5999;43.256;27.816;2022-09-25T12:15:16;100353.13;;;24.85;49.50
11880;BME280;5999;43.256;27.816;2022-09-25T12:17:52;100347.06;;;24.39;48.88
11880;BME280;5999;43.256;27.816;2022-09-25T12:20:27;100341.69;;;24.39;50.40
11880;BME280;5999;43.256;27.816;2022-09-25T12:23:07;100335.19;;;23.88;51.87
11880;BME280;5999;43.256;27.816;2022-09-25T12:26:02;100347.88;;;23.77;54.13
11880;BME280;5999;43.256;27.816;2022-09-25T12:28:40;100350.13;;;23.26;57.33
11880;BME280;5999;43.256;27.816;2022-09-25T12:31:15;100345.13;;;24.05;57.18
11880;BME280;5999;43.256;27.816;2022-09-25T12:33:53;100352.50;;;24.03;55.62
11880;BME280;5999;43.256;27.816;2022-09-25T12:36:27;100344.34;;;23.49;55.97
11880;BME280;5999;43.256;27.816;2022-09-25T12:39:08;100336.97;;;23.51;56.37
11880;BME280;5999;43.256;27.816;2022-09-25T12:41:44;100335.19;;;23.24;55.88
11880;BME280;5999;43.256;27.816;2022-09-25T12:44:18;100329.84;;;23.42;57.35
11880;BME280;5999;43.256;27.816;2022-09-25T12:46:51;100326.47;;;23.58;57.46
11880;BME280;5999;43.256;27.816;2022-09-25T12:49:25;100327.47;;;23.11;61.18
11880;BME280;5999;43.256;27.816;2022-09-25T12:51:54;100329.34;;;23.29;62.43
11880;BME280;5999;43.256;27.816;2022-09-25T12:54:25;100326.16;;;23.43;62.93
11880;BME280;5999;43.256;27.816;2022-09-25T12:56:57;100324.28;;;23.43;65.17
11880;BME280;5999;43.256;27.816;2022-09-25T12:59:29;100330.53;;;22.79;72.50
11880;BME280;5999;43.256;27.816;2022-09-25T13:02:05;100332.81;;;22.74;72.96
11880;BME280;5999;43.256;27.816;2022-09-25T13:04:48;100316.41;;;22.77;73.70
11880;BME280;5999;43.256;27.816;2022-09-25T13:07:21;100314.13;;;22.82;74.34
11880;BME280;5999;43.256;27.816;2022-09-25T13:09:50;100315.47;;;22.96;77.61
11880;BME280;5999;43.256;27.816;2022-09-25T13:12:29;100322.19;;;23.65;73.16
11880;BME280;5999;43.256;27.816;2022-09-25T13:15:02;100324.97;;;22.43;76.37
11880;BME280;5999;43.256;27.816;2022-09-25T13:17:31;100321.41;;;22.62;81.54